Time;durP1;ratioP1;P1;durP2;ratioP2;P2;SDS_P1;SDS_P2;PMS_P1;PMS_P2;Temp;Humidity;BMP_temperature;BMP_pressure;BME280_temperature;BME280_humidity;BME280_pressure;Samples;Min_cycle;Max_cycle;Signal;HPM_P1;HPM_P2
2023/05/27 00:04:54;;;;;;;14.53;4.17;;;;;;;;;;10027093;29;20257;-82
2023/05/27 00:10:16;;;;;;;9.77;4.50;;;;;;;;;;10031693;29;20521;-84
2023/05/27 00:15:39;;;;;;;10.87;3.53;;;;;;;;;;10003714;29;20246;-82
2023/05/27 00:21:00;;;;;;;11.57;4.43;;;;;;;;;;10003092;29;20213;-82
2023/05/27 00:26:22;;;;;;;10.60;3.80;;;;;;;;;;10002966;29;20238;-81
2023/05/27 00:31:46;;;;;;;11.20;4.30;;;;;;;;;;9990294;29;20213;-83
2023/05/27 00:37:08;;;;;;;16.33;5.67;;;;;;;;;;10006711;29;20250;-84
2023/05/27 00:42:30;;;;;;;12.97;5.20;;;;;;;;;;10017032;29;20609;-81
2023/05/27 00:47:52;;;;;;;14.30;5.40;;;;;;;;;;10048146;29;20229;-82
2023/05/27 00:53:14;;;;;;;11.13;5.10;;;;;;;;;;10032808;29;20242;-79
2023/05/27 00:58:36;;;;;;;12.20;4.67;;;;;;;;;;10048903;29;20214;-81
2023/05/27 01:03:58;;;;;;;11.03;5.03;;;;;;;;;;10047639;29;20276;-80
2023/05/27 01:09:28;;;;;;;11.67;5.33;;;;;;;;;;10029269;29;20520;-82
2023/05/27 01:14:52;;;;;;;14.33;5.70;;;;;;;;;;10029266;29;20203;-82
2023/05/27 01:20:14;;;;;;;12.07;4.77;;;;;;;;;;10021727;29;20287;-78
2023/05/27 01:25:36;;;;;;;8.63;4.90;;;;;;;;;;10080350;29;20278;-85
2023/05/27 01:31:13;;;;;;;13.07;5.20;;;;;;;;;;10086219;29;20237;-84
2023/05/27 01:36:38;;;;;;;8.93;5.27;;;;;;;;;;10062446;29;20211;-80
2023/05/27 01:42:01;;;;;;;15.80;7.10;;;;;;;;;;10043415;29;20212;-83
2023/05/27 01:47:23;;;;;;;12.30;6.10;;;;;;;;;;9995167;29;20234;-78
2023/05/27 01:58:43;;;;;;;11.40;6.20;;;;;;;;;;10083535;29;20245;-85
2023/05/27 02:15:26;;;;;;;13.33;5.60;;;;;;;;;;9998562;29;20493;-84
2023/05/27 02:20:55;;;;;;;12.10;5.90;;;;;;;;;;10034626;29;20224;-81
2023/05/27 02:42:42;;;;;;;12.87;5.50;;;;;;;;;;10005686;29;20205;-75
2023/05/27 02:54:22;;;;;;;13.03;5.27;;;;;;;;;;10006541;29;20199;-81
2023/05/27 02:59:44;;;;;;;11.67;5.47;;;;;;;;;;10031854;29;20283;-78
2023/05/27 03:10:26;;;;;;;11.80;4.97;;;;;;;;;;10063843;29;20378;-80
2023/05/27 03:15:48;;;;;;;15.33;5.50;;;;;;;;;;10071086;29;20500;-84
2023/05/27 03:33:35;;;;;;;12.00;6.67;;;;;;;;;;10045058;29;20272;-80
2023/05/27 04:02:16;;;;;;;11.80;6.00;;;;;;;;;;10004269;29;20214;-81
2023/05/27 04:13:22;;;;;;;12.20;6.07;;;;;;;;;;10027724;29;20218;-76
2023/05/27 04:18:48;;;;;;;12.07;5.80;;;;;;;;;;10033152;29;20211;-83
2023/05/27 04:24:10;;;;;;;12.57;5.63;;;;;;;;;;10003148;29;20230;-79
2023/05/27 04:29:34;;;;;;;9.30;5.27;;;;;;;;;;10019685;29;20290;-79
2023/05/27 04:34:57;;;;;;;8.97;4.57;;;;;;;;;;10002773;29;20281;-79
2023/05/27 04:40:19;;;;;;;10.07;4.70;;;;;;;;;;10002895;29;20207;-85
2023/05/27 04:46:02;;;;;;;11.87;4.60;;;;;;;;;;10002448;29;20242;-78
2023/05/27 04:51:24;;;;;;;12.07;4.73;;;;;;;;;;9991696;29;20238;-78
2023/05/27 04:56:46;;;;;;;17.47;5.63;;;;;;;;;;10005269;29;20247;-82
2023/05/27 05:02:21;;;;;;;15.33;6.40;;;;;;;;;;10039879;29;20458;-78
2023/05/27 05:08:00;;;;;;;13.40;5.70;;;;;;;;;;10005765;29;20433;-78
2023/05/27 05:13:28;;;;;;;12.23;5.83;;;;;;;;;;9977239;29;20261;-79
2023/05/27 05:18:50;;;;;;;9.70;5.72;;;;;;;;;;10013826;29;20232;-82
2023/05/27 05:24:14;;;;;;;10.87;5.50;;;;;;;;;;10027004;29;20432;-84
2023/05/27 05:29:38;;;;;;;9.55;5.55;;;;;;;;;;10037860;29;20210;-80
2023/05/27 05:35:00;;;;;;;13.32;5.47;;;;;;;;;;10046845;29;20196;-84
2023/05/27 05:40:23;;;;;;;10.40;5.25;;;;;;;;;;9996005;29;20291;-80
2023/05/27 05:46:01;;;;;;;7.30;3.97;;;;;;;;;;10010947;29;20281;-81
2023/05/27 05:51:24;;;;;;;9.07;3.45;;;;;;;;;;10008021;29;20210;-82
2023/05/27 05:56:50;;;;;;;4.43;2.53;;;;;;;;;;10010941;29;20245;-82
2023/05/27 06:02:12;;;;;;;6.97;2.40;;;;;;;;;;10020275;29;20211;-82
2023/05/27 06:07:34;;;;;;;5.03;2.38;;;;;;;;;;10031532;29;20246;-77
2023/05/27 06:13:01;;;;;;;6.30;3.25;;;;;;;;;;10007147;29;20483;-77
2023/05/27 06:18:23;;;;;;;9.70;3.90;;;;;;;;;;9996824;29;20221;-80
2023/05/27 06:23:45;;;;;;;5.07;2.78;;;;;;;;;;10019993;29;20198;-77
2023/05/27 06:29:18;;;;;;;6.82;2.80;;;;;;;;;;10018299;29;20224;-81
2023/05/27 06:34:39;;;;;;;8.93;2.42;;;;;;;;;;10008656;29;20290;-76
2023/05/27 06:40:02;;;;;;;4.25;1.77;;;;;;;;;;10007909;29;20511;-76
2023/05/27 06:45:24;;;;;;;3.13;1.60;;;;;;;;;;10043683;29;20233;-77
2023/05/27 06:50:57;;;;;;;4.80;2.00;;;;;;;;;;10021274;29;20211;-82
2023/05/27 06:56:18;;;;;;;6.15;1.90;;;17.20;99.90;;;;;;10005452;29;20238;-79
2023/05/27 07:01:58;;;;;;;3.50;1.60;;;17.70;70.70;;;;;;10021661;29;20222;-84
2023/05/27 07:07:21;;;;;;;4.25;1.38;;;;;;;;;;10017387;29;20283;-84
2023/05/27 07:12:42;;;;;;;3.22;1.50;;;18.80;1.00;;;;;;10039007;29;20230;-83
2023/05/27 07:18:21;;;;;;;2.17;1.25;;;19.20;1.00;;;;;;10040973;29;20401;-84
2023/05/27 07:23:45;;;;;;;7.38;1.83;;;;;;;;;;10022439;29;20413;-79
2023/05/27 07:29:17;;;;;;;6.07;1.10;;;;;;;;;;10017488;29;20402;-78
2023/05/27 07:34:48;;;;;;;3.13;1.10;;;;;;;;;;10005241;29;20204;-76
2023/05/27 07:40:10;;;;;;;2.95;1.27;;;20.90;1.00;;;;;;9981058;29;20574;-78
2023/05/27 07:45:33;;;;;;;4.78;1.73;;;21.00;1.00;;;;;;10004066;29;20227;-80
2023/05/27 07:50:55;;;;;;;2.65;1.40;;;20.90;1.00;;;;;;9992720;29;20216;-82
2023/05/27 07:56:17;;;;;;;4.30;1.10;;;21.10;1.00;;;;;;10029484;29;20605;-83
2023/05/27 08:01:39;;;;;;;53.05;26.08;;;;;;;;;;10036493;29;20239;-82
2023/05/27 08:07:00;;;;;;;7.43;4.00;;;22.10;99.90;;;;;;10040758;29;20218;-77
2023/05/27 08:12:42;;;;;;;7.13;2.53;;;22.00;1.00;;;;;;10034302;29;20207;-80
2023/05/27 08:18:24;;;;;;;4.95;2.00;;;22.40;1.00;;;;;;10038841;29;20565;-77
2023/05/27 08:24:14;;;;;;;5.20;2.03;;;22.80;1.00;;;;;;10018794;29;20244;-78
2023/05/27 08:30:01;;;;;;;2.63;1.10;;;;;;;;;;10075085;29;20472;-81
2023/05/27 08:35:40;;;;;;;2.22;1.20;;;23.60;99.90;;;;;;10047797;29;20206;-81
2023/05/27 08:41:02;;;;;;;5.28;1.30;;;23.90;99.90;;;;;;10059377;29;20218;-83
2023/05/27 08:51:45;;;;;;;2.35;1.30;;;23.90;99.90;;;;;;10060347;29;20217;-79
2023/05/27 08:57:09;;;;;;;6.75;1.38;;;23.90;99.90;;;;;;10062108;29;20246;-76
2023/05/27 09:02:31;;;;;;;2.72;1.10;;;24.00;99.90;;;;;;10058200;29;20233;-78
2023/05/27 09:07:52;;;;;;;5.53;1.95;;;24.30;99.90;;;;;;10009251;29;20583;-81
2023/05/27 09:13:13;;;;;;;2.45;1.08;;;24.30;99.90;;;;;;10034427;29;20215;-84
2023/05/27 09:18:35;;;;;;;1.63;1.08;;;24.70;99.90;;;;;;10033812;29;20214;-81
2023/05/27 09:23:57;;;;;;;4.78;1.63;;;24.50;99.90;;;;;;10009412;29;20200;-77
2023/05/27 09:29:19;;;;;;;2.30;1.02;;;23.90;99.90;;;;;;10026347;29;20258;-83
2023/05/27 09:34:41;;;;;;;2.17;1.20;;;24.00;99.90;;;;;;10008322;29;20203;-82
2023/05/27 09:40:10;;;;;;;1.98;1.10;;;24.60;99.90;;;;;;10008213;29;20215;-78
2023/05/27 09:45:33;;;;;;;3.28;1.85;;;25.00;99.90;;;;;;9994880;29;20424;-78
2023/05/27 09:50:56;;;;;;;4.35;1.33;;;25.40;99.90;;;;;;10011035;29;20204;-84
2023/05/27 09:56:18;;;;;;;1.55;1.08;;;25.50;99.90;;;;;;10030368;29;20234;-84
2023/05/27 10:01:40;;;;;;;3.63;1.00;;;25.80;99.90;;;;;;10040742;29;20218;-78
2023/05/27 10:07:03;;;;;;;2.40;0.98;;;25.50;99.90;;;;;;10039239;29;20238;-83
2023/05/27 10:12:25;;;;;;;7.85;1.48;;;25.80;99.90;;;;;;10006118;29;20204;-80
2023/05/27 10:17:48;;;;;;;1.95;1.17;;;25.90;99.90;;;;;;10010676;29;20287;-78
2023/05/27 10:23:15;;;;;;;2.65;1.23;;;26.00;99.90;;;;;;10008462;29;20203;-76
2023/05/27 10:28:39;;;;;;;2.13;1.20;;;26.20;99.90;;;;;;10016923;29;20227;-80
2023/05/27 10:34:05;;;;;;;2.75;1.20;;;26.60;99.90;;;;;;10006079;29;20512;-76
2023/05/27 10:39:27;;;;;;;10.02;1.80;;;26.30;99.90;;;;;;10026835;29;20218;-76
2023/05/27 10:45:01;;;;;;;6.20;1.77;;;26.30;99.90;;;;;;10036709;29;20210;-77
2023/05/27 10:50:32;;;;;;;2.95;1.70;;;26.40;99.90;;;;;;10037464;29;20215;-81
2023/05/27 10:55:54;;;;;;;6.85;1.60;;;26.20;99.90;;;;;;10044444;29;20288;-79
2023/05/27 11:01:16;;;;;;;3.90;1.80;;;26.60;99.90;;;;;;10038790;29;20204;-83
2023/05/27 11:06:37;;;;;;;2.17;1.58;;;27.00;99.90;;;;;;10015428;29;20240;-80
2023/05/27 11:12:02;;;;;;;6.63;1.50;;;26.80;99.90;;;;;;10058074;29;20227;-83
2023/05/27 11:17:25;;;;;;;4.97;1.70;;;26.60;99.90;;;;;;10041940;29;20210;-79
2023/05/27 11:22:51;;;;;;;3.25;1.42;;;26.70;99.90;;;;;;10048075;29;20270;-84
2023/05/27 11:28:16;;;;;;;3.58;1.40;;;26.90;99.90;;;;;;10013021;29;20305;-77
2023/05/27 11:33:42;;;;;;;2.55;1.27;;;27.10;99.90;;;;;;10005231;29;20200;-82
2023/05/27 11:39:04;;;;;;;1.52;1.00;;;27.20;99.90;;;;;;10023543;29;20524;-80
2023/05/27 11:44:26;;;;;;;3.75;1.38;;;27.20;99.90;;;;;;10042719;29;20199;-80
2023/05/27 11:49:49;;;;;;;2.60;1.27;;;26.90;99.90;;;;;;10032520;29;20379;-81
2023/05/27 11:55:16;;;;;;;2.97;1.00;;;26.80;99.90;;;;;;10080115;29;20206;-77
2023/05/27 12:00:38;;;;;;;2.85;1.48;;;26.70;99.90;;;;;;10044625;29;20246;-80
2023/05/27 12:05:59;;;;;;;2.67;1.25;;;26.80;99.90;;;;;;10011041;29;20227;-81
2023/05/27 12:11:21;;;;;;;1.13;0.93;;;26.50;99.90;;;;;;10074582;29;20218;-83
2023/05/27 12:16:45;;;;;;;4.65;1.20;;;26.50;99.90;;;;;;10073445;29;20207;-84
2023/05/27 12:22:06;;;;;;;2.65;1.15;;;26.40;99.90;;;;;;10018653;29;20231;-82
2023/05/27 12:27:28;;;;;;;5.97;1.17;;;26.60;99.90;;;;;;10014017;29;20301;-76
2023/05/27 12:32:49;;;;;;;3.45;1.30;;;26.30;99.90;;;;;;10015495;29;20376;-78
2023/05/27 12:38:11;;;;;;;4.60;1.17;;;26.40;99.90;;;;;;10052094;29;20209;-80
2023/05/27 12:43:32;;;;;;;4.80;1.40;;;26.20;99.90;;;;;;10055781;29;20202;-78
2023/05/27 12:48:53;;;;;;;2.50;1.05;;;26.10;99.90;;;;;;10033796;29;20542;-79
2023/05/27 12:54:15;;;;;;;2.25;1.20;;;26.20;99.90;;;;;;10009815;29;20208;-80
2023/05/27 12:59:36;;;;;;;3.10;1.30;;;26.00;99.90;;;;;;9997906;29;20255;-81
2023/05/27 13:05:00;;;;;;;7.38;6.00;;;26.00;99.90;;;;;;10056379;29;20278;-82
2023/05/27 13:10:22;;;;;;;4.97;2.70;;;26.20;99.90;;;;;;10007985;29;20219;-83
2023/05/27 13:15:43;;;;;;;3.50;1.73;;;26.00;99.90;;;;;;10009757;29;20495;-78
2023/05/27 13:21:06;;;;;;;2.25;1.30;;;25.70;99.90;;;;;;10012941;29;20275;-80
2023/05/27 13:26:30;;;;;;;2.05;1.30;;;25.30;99.90;;;;;;10009499;29;20224;-76
2023/05/27 13:31:51;;;;;;;3.08;1.70;;;25.00;99.90;;;;;;10033433;29;20207;-76
2023/05/27 13:37:12;;;;;;;2.30;1.23;;;25.00;99.90;;;;;;10045453;29;20561;-82
2023/05/27 13:42:35;;;;;;;3.88;1.52;;;24.60;99.90;;;;;;10008991;29;20221;-83
2023/05/27 13:47:56;;;;;;;3.05;1.60;;;24.80;99.90;;;;;;10010717;29;20573;-84
2023/05/27 13:53:17;;;;;;;6.82;1.83;;;24.60;99.90;;;;;;10008138;29;20196;-81
2023/05/27 13:58:39;;;;;;;1.95;1.25;;;24.60;99.90;;;;;;10020963;29;20310;-83
2023/05/27 14:04:01;;;;;;;3.60;1.23;;;24.50;99.90;;;;;;10068212;29;20195;-81
2023/05/27 14:09:22;;;;;;;3.45;1.10;;;24.50;99.90;;;;;;10041510;29;20231;-83
2023/05/27 14:14:44;;;;;;;2.92;1.60;;;24.30;99.90;;;;;;10012484;29;20234;-79
2023/05/27 14:20:10;;;;;;;2.00;1.50;;;24.30;99.90;;;;;;10038214;29;20391;-77
2023/05/27 14:25:31;;;;;;;1.50;0.93;;;24.10;99.90;;;;;;10017818;29;20447;-80
2023/05/27 14:30:52;;;;;;;3.65;1.25;;;23.80;99.90;;;;;;10035141;29;20211;-79
2023/05/27 14:36:13;;;;;;;4.35;1.20;;;23.60;99.90;;;;;;10081371;29;20194;-83
2023/05/27 14:41:34;;;;;;;3.35;1.60;;;23.40;99.90;;;;;;10016076;29;20215;-76
2023/05/27 14:46:55;;;;;;;3.03;1.33;;;22.70;99.90;;;;;;10006942;29;20242;-80
2023/05/27 14:52:17;;;;;;;3.00;1.30;;;22.60;99.90;;;;;;10005470;29;20227;-83
2023/05/27 14:57:38;;;;;;;4.38;1.80;;;22.20;99.90;;;;;;10005188;29;20304;-82
2023/05/27 15:03:00;;;;;;;2.72;1.35;;;22.00;99.90;;;;;;10033186;29;20214;-79
2023/05/27 15:08:21;;;;;;;5.55;2.05;;;22.20;99.90;;;;;;10030282;29;20237;-80
2023/05/27 15:13:43;;;;;;;3.38;1.85;;;;;;;;;;10013761;29;20613;-79
2023/05/27 15:19:04;;;;;;;3.55;1.73;;;21.80;99.90;;;;;;9993080;29;20282;-81
2023/05/27 15:24:26;;;;;;;5.10;1.52;;;21.80;99.90;;;;;;10035977;29;20290;-79
2023/05/27 15:29:47;;;;;;;4.63;1.55;;;21.70;99.90;;;;;;10036524;29;20318;-81
2023/05/27 15:35:09;;;;;;;1.80;1.00;;;21.30;99.90;;;;;;10045322;29;20231;-78
2023/05/27 15:47:24;;;;;;;5.65;1.70;;;21.00;99.90;;;;;;10005117;29;20224;-80
2023/05/27 16:24:45;;;;;;;2.63;1.08;;;20.60;99.90;;;;;;10015170;29;20251;-76
2023/05/27 16:40:46;;;;;;;2.33;1.30;;;19.80;99.90;;;;;;10038569;29;20225;-77
2023/05/27 16:46:07;;;;;;;4.55;1.60;;;19.80;99.90;;;;;;10040670;29;20218;-76
2023/05/27 16:51:28;;;;;;;3.33;1.50;;;19.70;99.90;;;;;;10036833;29;20248;-76
2023/05/27 16:56:50;;;;;;;4.38;1.55;;;19.60;99.90;;;;;;10024111;29;20227;-76
2023/05/27 17:02:12;;;;;;;1.90;1.40;;;19.50;99.90;;;;;;10032630;29;20238;-76
2023/05/27 17:07:34;;;;;;;4.50;2.70;;;19.40;99.90;;;;;;10003232;29;20257;-75
2023/05/27 17:12:56;;;;;;;3.50;2.28;;;19.30;99.90;;;;;;10005954;29;20287;-75
2023/05/27 17:18:18;;;;;;;3.92;2.17;;;19.00;99.90;;;;;;10002890;29;20492;-75
2023/05/27 17:23:39;;;;;;;5.80;2.58;;;19.00;99.90;;;;;;10003847;29;20322;-75
2023/05/27 17:29:00;;;;;;;4.60;2.38;;;18.90;99.90;;;;;;10011661;29;20230;-75
2023/05/27 17:34:22;;;;;;;4.03;2.25;;;18.70;99.90;;;;;;10019010;29;20559;-76
2023/05/27 17:39:43;;;;;;;2.85;1.63;;;18.60;99.90;;;;;;10084438;29;20194;-76
2023/05/27 17:45:05;;;;;;;2.90;1.40;;;18.40;99.90;;;;;;10031708;29;20235;-75
2023/05/27 17:50:26;;;;;;;4.65;1.60;;;18.30;99.90;;;;;;10008385;29;20276;-76
2023/05/27 17:55:48;;;;;;;2.13;1.75;;;18.30;99.90;;;;;;10040889;29;20203;-76
2023/05/27 18:01:10;;;;;;;2.58;2.00;;;18.20;99.90;;;;;;10036801;29;20248;-74
2023/05/27 18:06:31;;;;;;;4.15;1.58;;;18.10;99.90;;;;;;10031838;29;20223;-77
2023/05/27 18:11:52;;;;;;;3.92;1.65;;;18.00;99.90;;;;;;10026034;29;20212;-76
2023/05/27 18:17:15;;;;;;;4.78;2.05;;;17.70;99.90;;;;;;10007704;29;20517;-76
2023/05/27 18:22:37;;;;;;;4.97;2.58;;;17.60;99.90;;;;;;9983934;29;20694;-77
2023/05/27 18:27:58;;;;;;;6.03;3.45;;;17.50;99.90;;;;;;10021503;29;20228;-76
2023/05/27 18:33:19;;;;;;;5.85;3.40;;;17.40;99.90;;;;;;10010968;29;20485;-76
2023/05/27 18:38:41;;;;;;;7.38;3.83;;;17.30;99.90;;;;;;10007131;29;20200;-78
2023/05/27 18:44:03;;;;;;;5.18;3.15;;;17.20;99.90;;;;;;9995100;29;20559;-82
2023/05/27 18:49:24;;;;;;;2.72;2.08;;;17.10;99.90;;;;;;10009266;29;20242;-79
2023/05/27 18:54:45;;;;;;;7.07;2.85;;;17.00;99.90;;;;;;10035505;29;20233;-76
2023/05/27 19:00:08;;;;;;;6.47;2.92;;;16.90;99.90;;;;;;10023176;29;20318;-77
2023/05/27 19:05:29;;;;;;;8.68;3.00;;;16.80;99.90;;;;;;10042658;29;20278;-77
2023/05/27 19:10:51;;;;;;;7.55;3.42;;;16.70;99.90;;;;;;10017963;29;20268;-82
2023/05/27 19:16:13;;;;;;;5.32;2.80;;;16.60;99.90;;;;;;9992309;29;20433;-84
2023/05/27 19:21:35;;;;;;;4.60;3.33;;;16.50;99.90;;;;;;10006145;29;20203;-83
2023/05/27 19:26:56;;;;;;;5.78;3.45;;;16.40;99.90;;;;;;10005798;29;20276;-83
2023/05/27 19:32:17;;;;;;;5.25;3.40;;;16.20;99.90;;;;;;10035603;29;20501;-84
2023/05/27 19:37:38;;;;;;;4.25;2.55;;;16.10;99.90;;;;;;10028217;29;20207;-81
2023/05/27 19:42:59;;;;;;;7.13;3.75;;;15.90;99.90;;;;;;10005882;29;20222;-84
2023/05/27 19:48:22;;;;;;;7.78;2.78;;;15.90;99.90;;;;;;10007235;29;20238;-84
2023/05/27 19:53:43;;;;;;;8.38;2.80;;;15.80;99.90;;;;;;10004036;29;20252;-82
2023/05/27 19:59:05;;;;;;;4.47;2.13;;;15.70;99.90;;;;;;10024786;29;20520;-81
2023/05/27 20:46:15;;;;;;;8.10;4.35;;;14.80;99.90;;;;;;10005098;29;20213;-81
2023/05/27 20:59:03;;;;;;;9.80;5.18;;;14.60;99.90;;;;;;10026850;29;20218;-83
2023/05/27 21:04:26;;;;;;;10.35;4.40;;;14.50;99.90;;;;;;10047605;29;20516;-79
2023/05/27 21:09:47;;;;;;;7.85;3.88;;;14.50;99.90;;;;;;10048460;29;20238;-81
2023/05/27 21:15:08;;;;;;;6.75;3.80;;;14.30;99.90;;;;;;10018618;29;20465;-85
2023/05/27 21:20:30;;;;;;;6.85;4.10;;;14.20;99.90;;;;;;10010030;29;20204;-83
2023/05/27 21:31:50;;;;;;;7.78;4.13;;;14.00;99.90;;;;;;10044159;29;20213;-83
2023/05/27 21:37:12;;;;;;;11.10;4.43;;;13.90;99.90;;;;;;10009492;29;20497;-83
2023/05/27 21:42:33;;;;;;;8.63;3.97;;;13.80;99.90;;;;;;9997894;29;20242;-83
2023/05/27 21:47:54;;;;;;;9.23;4.43;;;13.80;99.90;;;;;;10046306;29;20236;-84
2023/05/27 21:53:15;;;;;;;13.27;5.82;;;13.80;99.90;;;;;;10038678;29;20217;-81
2023/05/27 21:58:37;;;;;;;8.52;4.63;;;13.70;99.90;;;;;;10008715;29;20209;-84
2023/05/27 22:03:58;;;;;;;8.77;4.35;;;13.70;99.90;;;;;;10018514;29;20211;-84
2023/05/27 22:09:19;;;;;;;12.05;3.88;;;13.60;99.90;;;;;;10007475;29;20237;-80
2023/05/27 22:14:41;;;;;;;8.30;4.18;;;13.50;99.90;;;;;;10011690;29;20208;-79
2023/05/27 22:20:02;;;;;;;8.73;5.10;;;13.40;99.90;;;;;;10010474;29;20223;-84
2023/05/27 22:25:31;;;;;;;11.63;5.28;;;13.30;99.90;;;;;;10033884;29;20211;-81
2023/05/27 22:30:52;;;;;;;11.65;6.38;;;13.30;99.90;;;;;;10038513;29;20326;-84
2023/05/27 22:36:13;;;;;;;11.05;5.35;;;13.20;99.90;;;;;;10011456;29;20252;-83
2023/05/27 22:41:35;;;;;;;9.48;5.53;;;13.10;99.90;;;;;;10006289;29;20260;-79
2023/05/27 22:46:56;;;;;;;9.48;5.45;;;13.10;99.90;;;;;;10038075;29;20308;-83
2023/05/27 22:52:18;;;;;;;9.10;5.55;;;13.10;99.90;;;;;;10042746;29;20209;-83
2023/05/27 22:57:39;;;;;;;12.40;6.50;;;13.10;99.90;;;;;;9992987;29;20611;-84
2023/05/27 23:03:01;;;;;;;8.82;5.85;;;13.00;99.90;;;;;;10009645;29;20321;-83
2023/05/27 23:08:23;;;;;;;10.10;6.38;;;12.90;99.90;;;;;;10005553;29;20551;-83
2023/05/27 23:13:44;;;;;;;10.32;6.15;;;12.80;99.90;;;;;;10012876;29;20225;-80
2023/05/27 23:19:06;;;;;;;10.02;5.75;;;12.80;99.90;;;;;;10043553;29;20571;-81
2023/05/27 23:24:27;;;;;;;12.75;6.70;;;12.60;99.90;;;;;;10022480;29;20214;-82
2023/05/27 23:29:48;;;;;;;14.05;7.13;;;12.60;99.90;;;;;;10014928;29;20426;-83
2023/05/27 23:35:10;;;;;;;13.55;6.70;;;12.70;99.90;;;;;;10024344;29;20436;-83
2023/05/27 23:40:32;;;;;;;11.20;6.28;;;12.60;99.90;;;;;;10004674;29;20197;-81
2023/05/27 23:45:54;;;;;;;10.02;5.72;;;12.50;99.90;;;;;;10008324;29;20210;-84
2023/05/27 23:51:15;;;;;;;8.05;5.72;;;12.50;99.90;;;;;;10004006;29;20237;-85
2023/05/27 23:56:37;;;;;;;7.28;5.57;;;12.50;99.90;;;;;;10008534;29;20434;-82
